Sovereign — ZGBZ4 — position and weather

sailwx.info

Track history (hours):
 
Tides and Currents Weather Stations Pressure Air Temp Water Temp Dewpoint Dewpoint Depression Visibility Wind Speed Wind Dir Waves Ship Positions

Sovereign

Last reported at 2017-Aug-04 14:00 UTC. Time now 2017-Aug-20 17:18 UTC.
Position N 39°04' E 019°27'.
Warning: this ship's position is 16 days out of date.

Length 55 m; draft 3 m.

Type: Pleasure craft. MMSI: 319931000.

Date/timePositionNaut miles runAvg speedWind from/ knotsBaromVisibWave heightAir tempDewpointWater temp
2017-Aug-04 14:00N 39°04' E 019°27'3311.2
2017-Aug-04 11:02N 38°50' E 018°48'011.5
2017-Aug-04 11:00N 38°50' E 018°48'611.5
2017-Aug-04 10:30N 38°47' E 018°41'611.3
2017-Aug-04 10:00N 38°45' E 018°35'611.4
2017-Aug-04 09:30N 38°43' E 018°28'611.6
2017-Aug-04 09:00N 38°40' E 018°21'611.6
2017-Aug-04 08:30N 38°38' E 018°14'611.4
2017-Aug-04 08:00N 38°35' E 018°08'611.4
2017-Aug-04 07:30N 38°33' E 018°01'611.3
2017-Aug-04 07:00N 38°31' E 017°55'611.2
2017-Aug-04 06:30N 38°28' E 017°48'611.4
2017-Aug-04 06:00N 38°26' E 017°41'611.4
2017-Aug-04 05:29N 38°23' E 017°35'9210.7
2017-Aug-03 20:53N 37°50' E 015°45'810.6
2017-Aug-03 20:09N 37°50' E 015°35'410.6
2017-Aug-03 19:49N 37°49' E 015°31'16 5.1
2017-Aug-03 16:37N 38°06' E 015°33'210.1
2017-Aug-03 16:25N 38°08' E 015°34'510.7
2017-Aug-03 15:57N 38°12' E 015°35'7 8.9
2017-Aug-03 15:13N 38°18' E 015°39'210.4
2017-Aug-03 15:00N 38°20' E 015°37'1110.6
2017-Aug-03 13:57N 38°26' E 015°26'810.5
2017-Aug-03 13:13N 38°31' E 015°18'210.5
2017-Aug-03 13:00N 38°32' E 015°15'510.7
2017-Aug-03 12:30N 38°35' E 015°09'  
2017-Jul-26 18:54N 42°49' E 010°06'13 0.7
2017-Jul-25 23:43N 42°59' E 010°17'411.6
2017-Jul-25 23:21N 43°03' E 010°15'411.6
2017-Jul-25 23:00N 43°07' E 010°14'611.6
2017-Jul-25 22:30N 43°13' E 010°11'611.6
2017-Jul-25 22:00N 43°18' E 010°09'611.4
2017-Jul-25 21:30N 43°24' E 010°07'611.5
2017-Jul-25 21:00N 43°29' E 010°05'611.7
2017-Jul-25 20:30N 43°35' E 010°02'510.5
2017-Jul-25 20:00N 43°40' E 010°01'611.5
2017-Jul-25 19:30N 43°46' E 009°59'612.0
2017-Jul-25 19:00N 43°51' E 009°56'611.6
2017-Jul-25 18:30N 43°57' E 009°54'611.7
2017-Jul-25 18:00N 44°03' E 009°52'1 2.3
2017-Jul-25 17:30N 44°03' E 009°51'0 0.0
2017-Jul-25 17:00N 44°03' E 009°51'0 0.0
2017-Jul-25 16:30N 44°03' E 009°51'0 0.0
2017-Jul-25 16:00N 44°03' E 009°51'0 0.0
2017-Jul-25 15:30N 44°03' E 009°51'0 0.0
2017-Jul-25 15:00N 44°03' E 009°51'0 0.0
2017-Jul-25 14:00N 44°03' E 009°51'  
Track history (hours):
 
Tides and Currents Weather Stations Pressure Air Temp Water Temp Dewpoint Dewpoint Depression Visibility Wind Speed Wind Dir Waves Ship Positions

Sovereign

Last reported at 2017-Aug-04 14:00 UTC. Time now 2017-Aug-20 17:18 UTC.
Position N 39°04' E 019°27'.
Warning: this ship's position is 16 days out of date.

Length 55 m; draft 3 m.

Type: Pleasure craft. MMSI: 319931000.

Date/timePositionNaut miles runAvg speedWind from/ knotsBaromVisibWave heightAir tempDewpointWater temp
2017-Aug-04 14:00N 39°04' E 019°27'3311.2
2017-Aug-04 11:02N 38°50' E 018°48'011.5
2017-Aug-04 11:00N 38°50' E 018°48'611.5
2017-Aug-04 10:30N 38°47' E 018°41'611.3
2017-Aug-04 10:00N 38°45' E 018°35'611.4
2017-Aug-04 09:30N 38°43' E 018°28'611.6
2017-Aug-04 09:00N 38°40' E 018°21'611.6
2017-Aug-04 08:30N 38°38' E 018°14'611.4
2017-Aug-04 08:00N 38°35' E 018°08'611.4
2017-Aug-04 07:30N 38°33' E 018°01'611.3
2017-Aug-04 07:00N 38°31' E 017°55'611.2
2017-Aug-04 06:30N 38°28' E 017°48'611.4
2017-Aug-04 06:00N 38°26' E 017°41'611.4
2017-Aug-04 05:29N 38°23' E 017°35'9210.7
2017-Aug-03 20:53N 37°50' E 015°45'810.6
2017-Aug-03 20:09N 37°50' E 015°35'410.6
2017-Aug-03 19:49N 37°49' E 015°31'16 5.1
2017-Aug-03 16:37N 38°06' E 015°33'210.1
2017-Aug-03 16:25N 38°08' E 015°34'510.7
2017-Aug-03 15:57N 38°12' E 015°35'7 8.9
2017-Aug-03 15:13N 38°18' E 015°39'210.4
2017-Aug-03 15:00N 38°20' E 015°37'1110.6
2017-Aug-03 13:57N 38°26' E 015°26'810.5
2017-Aug-03 13:13N 38°31' E 015°18'210.5
2017-Aug-03 13:00N 38°32' E 015°15'510.7
2017-Aug-03 12:30N 38°35' E 015°09'  
2017-Jul-26 18:54N 42°49' E 010°06'13 0.7
2017-Jul-25 23:43N 42°59' E 010°17'411.6
2017-Jul-25 23:21N 43°03' E 010°15'411.6
2017-Jul-25 23:00N 43°07' E 010°14'611.6
2017-Jul-25 22:30N 43°13' E 010°11'611.6
2017-Jul-25 22:00N 43°18' E 010°09'611.4
2017-Jul-25 21:30N 43°24' E 010°07'611.5
2017-Jul-25 21:00N 43°29' E 010°05'611.7
2017-Jul-25 20:30N 43°35' E 010°02'510.5
2017-Jul-25 20:00N 43°40' E 010°01'611.5
2017-Jul-25 19:30N 43°46' E 009°59'612.0
2017-Jul-25 19:00N 43°51' E 009°56'611.6
2017-Jul-25 18:30N 43°57' E 009°54'611.7
2017-Jul-25 18:00N 44°03' E 009°52'1 2.3
2017-Jul-25 17:30N 44°03' E 009°51'0 0.0
2017-Jul-25 17:00N 44°03' E 009°51'0 0.0
2017-Jul-25 16:30N 44°03' E 009°51'0 0.0
2017-Jul-25 16:00N 44°03' E 009°51'0 0.0
2017-Jul-25 15:30N 44°03' E 009°51'0 0.0
2017-Jul-25 15:00N 44°03' E 009°51'0 0.0
2017-Jul-25 14:00N 44°03' E 009°51'  

Dump ship's entire track history